sensor_id;sensor_type;location;lat;lon;timestamp;temperature;humidity
46932;DHT22;32670;51.464;11.964;2023-08-06T00:01:47;24.80;53.90
46932;DHT22;32670;51.464;11.964;2023-08-06T00:04:12;24.80;53.90
46932;DHT22;32670;51.464;11.964;2023-08-06T00:06:38;24.80;54.00
46932;DHT22;32670;51.464;11.964;2023-08-06T00:09:03;24.80;53.90
46932;DHT22;32670;51.464;11.964;2023-08-06T00:11:29;24.80;53.90
46932;DHT22;32670;51.464;11.964;2023-08-06T00:13:54;24.80;54.00
46932;DHT22;32670;51.464;11.964;2023-08-06T00:16:19;24.80;53.90
46932;DHT22;32670;51.464;11.964;2023-08-06T00:18:45;24.80;54.00
46932;DHT22;32670;51.464;11.964;2023-08-06T00:21:10;24.80;54.00
46932;DHT22;32670;51.464;11.964;2023-08-06T00:23:37;24.80;54.00
46932;DHT22;32670;51.464;11.964;2023-08-06T00:26:03;24.80;54.00
46932;DHT22;32670;51.464;11.964;2023-08-06T00:28:28;24.80;54.10
46932;DHT22;32670;51.464;11.964;2023-08-06T00:30:55;24.80;54.10
46932;DHT22;32670;51.464;11.964;2023-08-06T00:33:24;24.80;54.20
46932;DHT22;32670;51.464;11.964;2023-08-06T00:35:50;24.80;54.20
46932;DHT22;32670;51.464;11.964;2023-08-06T00:38:16;24.80;54.30
46932;DHT22;32670;51.464;11.964;2023-08-06T00:40:41;24.80;54.30
46932;DHT22;32670;51.464;11.964;2023-08-06T00:43:07;24.80;54.40
46932;DHT22;32670;51.464;11.964;2023-08-06T00:45:36;24.70;54.30
46932;DHT22;32670;51.464;11.964;2023-08-06T00:48:04;24.70;54.40
46932;DHT22;32670;51.464;11.964;2023-08-06T00:50:30;24.80;54.50
46932;DHT22;32670;51.464;11.964;2023-08-06T00:52:57;24.80;54.60
46932;DHT22;32670;51.464;11.964;2023-08-06T00:55:23;24.80;54.80
46932;DHT22;32670;51.464;11.964;2023-08-06T00:57:48;24.80;54.80
46932;DHT22;32670;51.464;11.964;2023-08-06T01:00:15;24.70;54.70
46932;DHT22;32670;51.464;11.964;2023-08-06T01:02:41;24.80;54.90
46932;DHT22;32670;51.464;11.964;2023-08-06T01:05:06;24.70;54.70
46932;DHT22;32670;51.464;11.964;2023-08-06T01:08:05;24.80;54.70
46932;DHT22;32670;51.464;11.964;2023-08-06T01:10:44;24.80;54.50
46932;DHT22;32670;51.464;11.964;2023-08-06T01:13:24;24.70;54.40
46932;DHT22;32670;51.464;11.964;2023-08-06T01:15:55;24.80;54.40
46932;DHT22;32670;51.464;11.964;2023-08-06T01:18:25;24.80;54.20
46932;DHT22;32670;51.464;11.964;2023-08-06T01:20:51;24.80;54.10
46932;DHT22;32670;51.464;11.964;2023-08-06T01:23:17;24.80;53.90
46932;DHT22;32670;51.464;11.964;2023-08-06T01:25:52;24.80;53.70
46932;DHT22;32670;51.464;11.964;2023-08-06T01:28:32;24.80;53.70
46932;DHT22;32670;51.464;11.964;2023-08-06T01:31:02;24.80;53.50
46932;DHT22;32670;51.464;11.964;2023-08-06T01:33:30;24.70;53.30
46932;DHT22;32670;51.464;11.964;2023-08-06T01:35:57;24.80;53.20
46932;DHT22;32670;51.464;11.964;2023-08-06T01:38:24;24.70;53.20
46932;DHT22;32670;51.464;11.964;2023-08-06T01:40:50;24.70;53.20
46932;DHT22;32670;51.464;11.964;2023-08-06T01:43:15;24.70;53.20
46932;DHT22;32670;51.464;11.964;2023-08-06T01:45:41;24.70;53.20
46932;DHT22;32670;51.464;11.964;2023-08-06T01:48:06;24.70;53.20
46932;DHT22;32670;51.464;11.964;2023-08-06T01:50:31;24.70;53.20
46932;DHT22;32670;51.464;11.964;2023-08-06T01:52:57;24.70;53.10
46932;DHT22;32670;51.464;11.964;2023-08-06T01:55:22;24.70;53.10
46932;DHT22;32670;51.464;11.964;2023-08-06T01:57:48;24.70;53.10
46932;DHT22;32670;51.464;11.964;2023-08-06T02:00:13;24.70;53.00
46932;DHT22;32670;51.464;11.964;2023-08-06T02:02:39;24.70;53.00
46932;DHT22;32670;51.464;11.964;2023-08-06T02:05:06;24.80;53.00
46932;DHT22;32670;51.464;11.964;2023-08-06T02:07:31;24.70;52.90
46932;DHT22;32670;51.464;11.964;2023-08-06T02:09:57;24.70;52.90
46932;DHT22;32670;51.464;11.964;2023-08-06T02:12:22;24.70;52.80
46932;DHT22;32670;51.464;11.964;2023-08-06T02:14:48;24.70;52.80
46932;DHT22;32670;51.464;11.964;2023-08-06T02:17:13;24.70;52.70
46932;DHT22;32670;51.464;11.964;2023-08-06T02:19:39;24.70;52.70
46932;DHT22;32670;51.464;11.964;2023-08-06T02:22:04;24.70;52.70
46932;DHT22;32670;51.464;11.964;2023-08-06T02:24:30;24.70;52.70
46932;DHT22;32670;51.464;11.964;2023-08-06T02:26:55;24.70;52.70
46932;DHT22;32670;51.464;11.964;2023-08-06T02:29:21;24.70;52.70
46932;DHT22;32670;51.464;11.964;2023-08-06T02:31:47;24.70;52.70
46932;DHT22;32670;51.464;11.964;2023-08-06T02:34:12;24.70;52.70
46932;DHT22;32670;51.464;11.964;2023-08-06T02:36:38;24.70;52.70
46932;DHT22;32670;51.464;11.964;2023-08-06T02:39:03;24.70;52.70
46932;DHT22;32670;51.464;11.964;2023-08-06T02:41:29;24.70;52.70
46932;DHT22;32670;51.464;11.964;2023-08-06T02:43:54;24.60;52.70
46932;DHT22;32670;51.464;11.964;2023-08-06T02:46:20;24.70;52.60
46932;DHT22;32670;51.464;11.964;2023-08-06T02:48:45;24.70;52.70
46932;DHT22;32670;51.464;11.964;2023-08-06T02:51:11;24.60;52.60
46932;DHT22;32670;51.464;11.964;2023-08-06T02:53:36;24.70;52.60
46932;DHT22;32670;51.464;11.964;2023-08-06T02:56:01;24.70;52.50
46932;DHT22;32670;51.464;11.964;2023-08-06T02:58:27;24.70;52.50
46932;DHT22;32670;51.464;11.964;2023-08-06T03:01:03;24.70;52.60
46932;DHT22;32670;51.464;11.964;2023-08-06T03:03:30;24.60;52.50
46932;DHT22;32670;51.464;11.964;2023-08-06T03:05:56;24.60;52.50
46932;DHT22;32670;51.464;11.964;2023-08-06T03:08:21;24.60;52.50
46932;DHT22;32670;51.464;11.964;2023-08-06T03:10:48;24.60;52.60
46932;DHT22;32670;51.464;11.964;2023-08-06T03:13:14;24.60;52.60
46932;DHT22;32670;51.464;11.964;2023-08-06T03:15:40;24.60;52.60
46932;DHT22;32670;51.464;11.964;2023-08-06T03:18:05;24.70;52.60
46932;DHT22;32670;51.464;11.964;2023-08-06T03:20:32;24.60;52.60
46932;DHT22;32670;51.464;11.964;2023-08-06T03:22:58;24.60;52.50
46932;DHT22;32670;51.464;11.964;2023-08-06T03:25:23;24.60;52.60
46932;DHT22;32670;51.464;11.964;2023-08-06T03:27:48;24.60;52.70
46932;DHT22;32670;51.464;11.964;2023-08-06T03:30:14;24.60;52.80
46932;DHT22;32670;51.464;11.964;2023-08-06T03:32:39;24.60;52.70
46932;DHT22;32670;51.464;11.964;2023-08-06T03:35:05;24.60;52.80
46932;DHT22;32670;51.464;11.964;2023-08-06T03:37:31;24.60;52.80
46932;DHT22;32670;51.464;11.964;2023-08-06T03:39:56;24.60;52.80
46932;DHT22;32670;51.464;11.964;2023-08-06T03:42:22;24.60;52.80
46932;DHT22;32670;51.464;11.964;2023-08-06T03:44:47;24.60;52.80
46932;DHT22;32670;51.464;11.964;2023-08-06T03:47:13;24.60;52.80
46932;DHT22;32670;51.464;11.964;2023-08-06T03:49:39;24.60;52.90
46932;DHT22;32670;51.464;11.964;2023-08-06T03:52:05;24.60;52.80
46932;DHT22;32670;51.464;11.964;2023-08-06T03:54:30;24.60;53.00
46932;DHT22;32670;51.464;11.964;2023-08-06T03:56:56;24.60;52.90
46932;DHT22;32670;51.464;11.964;2023-08-06T03:59:21;24.60;52.90
46932;DHT22;32670;51.464;11.964;2023-08-06T04:01:47;24.60;52.80
46932;DHT22;32670;51.464;11.964;2023-08-06T04:04:12;24.60;52.80
46932;DHT22;32670;51.464;11.964;2023-08-06T04:06:38;24.60;52.80
46932;DHT22;32670;51.464;11.964;2023-08-06T04:09:03;24.60;52.90
46932;DHT22;32670;51.464;11.964;2023-08-06T04:11:29;24.60;52.80
46932;DHT22;32670;51.464;11.964;2023-08-06T04:13:54;24.60;52.90
46932;DHT22;32670;51.464;11.964;2023-08-06T04:16:21;24.60;52.90
46932;DHT22;32670;51.464;11.964;2023-08-06T04:18:46;24.60;52.80
46932;DHT22;32670;51.464;11.964;2023-08-06T04:21:12;24.50;52.90
46932;DHT22;32670;51.464;11.964;2023-08-06T04:23:37;24.60;53.10
46932;DHT22;32670;51.464;11.964;2023-08-06T04:26:03;24.60;53.40
46932;DHT22;32670;51.464;11.964;2023-08-06T04:28:28;24.60;53.20
46932;DHT22;32670;51.464;11.964;2023-08-06T04:30:54;24.60;53.30
46932;DHT22;32670;51.464;11.964;2023-08-06T04:33:20;24.60;53.40
46932;DHT22;32670;51.464;11.964;2023-08-06T04:35:45;24.60;53.40
46932;DHT22;32670;51.464;11.964;2023-08-06T04:38:11;24.60;53.40
46932;DHT22;32670;51.464;11.964;2023-08-06T04:40:36;24.50;53.40
46932;DHT22;32670;51.464;11.964;2023-08-06T04:43:02;24.60;53.60
46932;DHT22;32670;51.464;11.964;2023-08-06T04:45:28;24.50;53.60
46932;DHT22;32670;51.464;11.964;2023-08-06T04:47:53;24.50;53.50
46932;DHT22;32670;51.464;11.964;2023-08-06T04:50:22;24.50;53.60
46932;DHT22;32670;51.464;11.964;2023-08-06T04:52:47;24.50;53.70
46932;DHT22;32670;51.464;11.964;2023-08-06T04:55:13;24.50;53.70
46932;DHT22;32670;51.464;11.964;2023-08-06T04:57:38;24.50;53.80
46932;DHT22;32670;51.464;11.964;2023-08-06T05:00:04;24.50;53.90
46932;DHT22;32670;51.464;11.964;2023-08-06T05:02:30;24.50;54.00
46932;DHT22;32670;51.464;11.964;2023-08-06T05:04:58;24.40;53.90
46932;DHT22;32670;51.464;11.964;2023-08-06T05:07:23;24.50;54.10
46932;DHT22;32670;51.464;11.964;2023-08-06T05:09:49;24.50;54.10
46932;DHT22;32670;51.464;11.964;2023-08-06T05:12:14;24.50;54.10
46932;DHT22;32670;51.464;11.964;2023-08-06T05:14:40;24.50;54.20
46932;DHT22;32670;51.464;11.964;2023-08-06T05:17:05;24.40;54.20
46932;DHT22;32670;51.464;11.964;2023-08-06T05:19:31;24.40;54.30
46932;DHT22;32670;51.464;11.964;2023-08-06T05:21:56;24.50;54.30
46932;DHT22;32670;51.464;11.964;2023-08-06T05:24:22;24.50;54.30
46932;DHT22;32670;51.464;11.964;2023-08-06T05:26:47;24.40;54.50
46932;DHT22;32670;51.464;11.964;2023-08-06T05:29:13;24.50;54.50
46932;DHT22;32670;51.464;11.964;2023-08-06T05:31:38;24.50;54.50
46932;DHT22;32670;51.464;11.964;2023-08-06T05:34:04;24.40;54.50
46932;DHT22;32670;51.464;11.964;2023-08-06T05:36:29;24.50;54.50
46932;DHT22;32670;51.464;11.964;2023-08-06T05:38:55;24.50;54.50
46932;DHT22;32670;51.464;11.964;2023-08-06T05:41:20;24.50;54.50
46932;DHT22;32670;51.464;11.964;2023-08-06T05:43:46;24.50;54.50
46932;DHT22;32670;51.464;11.964;2023-08-06T05:46:11;24.50;54.60
46932;DHT22;32670;51.464;11.964;2023-08-06T05:48:37;24.50;54.60
46932;DHT22;32670;51.464;11.964;2023-08-06T05:51:02;24.50;54.60
46932;DHT22;32670;51.464;11.964;2023-08-06T05:53:28;24.50;54.70
46932;DHT22;32670;51.464;11.964;2023-08-06T05:55:53;24.50;54.80
46932;DHT22;32670;51.464;11.964;2023-08-06T05:58:19;24.50;54.80
46932;DHT22;32670;51.464;11.964;2023-08-06T06:00:45;24.50;54.80
46932;DHT22;32670;51.464;11.964;2023-08-06T06:03:11;24.50;54.90
46932;DHT22;32670;51.464;11.964;2023-08-06T06:05:40;24.50;54.90
46932;DHT22;32670;51.464;11.964;2023-08-06T06:08:05;24.50;55.10
46932;DHT22;32670;51.464;11.964;2023-08-06T06:10:31;24.50;55.20
46932;DHT22;32670;51.464;11.964;2023-08-06T06:12:56;24.50;55.30
46932;DHT22;32670;51.464;11.964;2023-08-06T06:15:22;24.60;55.20
46932;DHT22;32670;51.464;11.964;2023-08-06T06:17:47;24.60;54.70
46932;DHT22;32670;51.464;11.964;2023-08-06T06:20:13;24.60;54.60
46932;DHT22;32670;51.464;11.964;2023-08-06T06:22:38;24.50;54.50
46932;DHT22;32670;51.464;11.964;2023-08-06T06:25:04;24.40;54.60
46932;DHT22;32670;51.464;11.964;2023-08-06T06:27:30;24.40;54.80
46932;DHT22;32670;51.464;11.964;2023-08-06T06:29:55;24.30;54.80
46932;DHT22;32670;51.464;11.964;2023-08-06T06:32:21;24.30;55.00
46932;DHT22;32670;51.464;11.964;2023-08-06T06:34:47;24.20;55.00
46932;DHT22;32670;51.464;11.964;2023-08-06T06:37:13;24.20;55.10
46932;DHT22;32670;51.464;11.964;2023-08-06T06:39:38;24.20;55.30
46932;DHT22;32670;51.464;11.964;2023-08-06T06:42:04;24.20;55.30
46932;DHT22;32670;51.464;11.964;2023-08-06T06:44:30;24.10;55.40
46932;DHT22;32670;51.464;11.964;2023-08-06T06:46:55;24.10;55.50
46932;DHT22;32670;51.464;11.964;2023-08-06T06:49:21;24.10;55.60
46932;DHT22;32670;51.464;11.964;2023-08-06T06:51:46;24.10;55.60
46932;DHT22;32670;51.464;11.964;2023-08-06T06:54:12;24.10;55.70
46932;DHT22;32670;51.464;11.964;2023-08-06T06:56:37;24.00;55.70
46932;DHT22;32670;51.464;11.964;2023-08-06T06:59:03;24.00;55.70
46932;DHT22;32670;51.464;11.964;2023-08-06T07:01:28;24.00;55.70
46932;DHT22;32670;51.464;11.964;2023-08-06T07:03:54;24.00;56.20
46932;DHT22;32670;51.464;11.964;2023-08-06T07:06:19;24.00;55.80
46932;DHT22;32670;51.464;11.964;2023-08-06T07:08:45;23.90;55.80
46932;DHT22;32670;51.464;11.964;2023-08-06T07:11:11;23.90;55.90
46932;DHT22;32670;51.464;11.964;2023-08-06T07:13:36;23.90;55.90
46932;DHT22;32670;51.464;11.964;2023-08-06T07:16:02;24.00;56.00
46932;DHT22;32670;51.464;11.964;2023-08-06T07:18:27;23.90;55.90
46932;DHT22;32670;51.464;11.964;2023-08-06T07:20:54;23.90;56.20
46932;DHT22;32670;51.464;11.964;2023-08-06T07:23:21;23.90;56.10
46932;DHT22;32670;51.464;11.964;2023-08-06T07:25:47;23.90;55.90
46932;DHT22;32670;51.464;11.964;2023-08-06T07:28:13;24.00;56.00
46932;DHT22;32670;51.464;11.964;2023-08-06T07:30:40;23.90;56.60
46932;DHT22;32670;51.464;11.964;2023-08-06T07:33:06;23.90;56.10
46932;DHT22;32670;51.464;11.964;2023-08-06T07:35:31;23.90;56.00
46932;DHT22;32670;51.464;11.964;2023-08-06T07:37:57;23.90;56.00
46932;DHT22;32670;51.464;11.964;2023-08-06T07:40:22;23.90;56.10
46932;DHT22;32670;51.464;11.964;2023-08-06T07:42:48;23.90;56.10
46932;DHT22;32670;51.464;11.964;2023-08-06T07:45:14;23.90;56.10
46932;DHT22;32670;51.464;11.964;2023-08-06T07:47:40;23.90;56.20
46932;DHT22;32670;51.464;11.964;2023-08-06T07:50:05;23.90;56.20
46932;DHT22;32670;51.464;11.964;2023-08-06T07:52:31;23.80;56.20
46932;DHT22;32670;51.464;11.964;2023-08-06T07:54:56;23.90;56.00
46932;DHT22;32670;51.464;11.964;2023-08-06T07:57:22;23.90;56.10
46932;DHT22;32670;51.464;11.964;2023-08-06T07:59:47;23.80;55.90
46932;DHT22;32670;51.464;11.964;2023-08-06T08:02:13;23.80;55.90
46932;DHT22;32670;51.464;11.964;2023-08-06T08:04:38;23.80;55.60
46932;DHT22;32670;51.464;11.964;2023-08-06T08:07:04;23.80;55.70
46932;DHT22;32670;51.464;11.964;2023-08-06T08:09:30;23.80;55.60
46932;DHT22;32670;51.464;11.964;2023-08-06T08:11:55;23.80;55.60
46932;DHT22;32670;51.464;11.964;2023-08-06T08:14:21;23.80;55.50
46932;DHT22;32670;51.464;11.964;2023-08-06T08:16:47;23.80;55.30
46932;DHT22;32670;51.464;11.964;2023-08-06T08:19:12;23.70;55.20
46932;DHT22;32670;51.464;11.964;2023-08-06T08:21:38;23.70;55.20
46932;DHT22;32670;51.464;11.964;2023-08-06T08:24:04;23.70;55.20
46932;DHT22;32670;51.464;11.964;2023-08-06T08:26:29;23.80;55.30
46932;DHT22;32670;51.464;11.964;2023-08-06T08:28:56;23.80;55.30
46932;DHT22;32670;51.464;11.964;2023-08-06T08:31:22;23.70;55.20
46932;DHT22;32670;51.464;11.964;2023-08-06T08:33:47;23.80;55.20
46932;DHT22;32670;51.464;11.964;2023-08-06T08:36:13;23.80;55.60
46932;DHT22;32670;51.464;11.964;2023-08-06T08:38:38;23.80;55.50
46932;DHT22;32670;51.464;11.964;2023-08-06T08:41:04;23.80;55.40
46932;DHT22;32670;51.464;11.964;2023-08-06T08:43:30;23.90;55.20
46932;DHT22;32670;51.464;11.964;2023-08-06T08:45:56;24.00;55.10
46932;DHT22;32670;51.464;11.964;2023-08-06T08:48:24;24.00;55.00
46932;DHT22;32670;51.464;11.964;2023-08-06T08:50:51;24.00;54.90
46932;DHT22;32670;51.464;11.964;2023-08-06T08:53:17;24.10;54.80
46932;DHT22;32670;51.464;11.964;2023-08-06T08:55:46;24.10;54.80
46932;DHT22;32670;51.464;11.964;2023-08-06T08:58:11;24.10;54.60
46932;DHT22;32670;51.464;11.964;2023-08-06T09:00:39;24.20;54.60
46932;DHT22;32670;51.464;11.964;2023-08-06T09:03:06;24.20;54.60
46932;DHT22;32670;51.464;11.964;2023-08-06T09:05:32;24.20;54.50
46932;DHT22;32670;51.464;11.964;2023-08-06T09:08:02;24.20;54.40
46932;DHT22;32670;51.464;11.964;2023-08-06T09:10:28;24.20;54.40
46932;DHT22;32670;51.464;11.964;2023-08-06T09:12:55;24.30;54.50
46932;DHT22;32670;51.464;11.964;2023-08-06T09:15:24;24.20;54.40
46932;DHT22;32670;51.464;11.964;2023-08-06T09:17:51;24.30;54.40
46932;DHT22;32670;51.464;11.964;2023-08-06T09:20:17;24.30;54.30
46932;DHT22;32670;51.464;11.964;2023-08-06T09:22:43;24.30;54.80
46932;DHT22;32670;51.464;11.964;2023-08-06T09:25:09;24.30;54.20
46932;DHT22;32670;51.464;11.964;2023-08-06T09:27:38;24.30;54.20
46932;DHT22;32670;51.464;11.964;2023-08-06T09:30:04;24.30;54.20
46932;DHT22;32670;51.464;11.964;2023-08-06T09:32:46;24.40;54.20
46932;DHT22;32670;51.464;11.964;2023-08-06T09:35:16;24.30;54.10
46932;DHT22;32670;51.464;11.964;2023-08-06T09:37:42;24.30;54.10
46932;DHT22;32670;51.464;11.964;2023-08-06T09:40:30;24.40;54.20
46932;DHT22;32670;51.464;11.964;2023-08-06T09:42:56;24.40;54.10
46932;DHT22;32670;51.464;11.964;2023-08-06T09:45:23;24.40;54.10
46932;DHT22;32670;51.464;11.964;2023-08-06T09:47:55;24.40;54.10
46932;DHT22;32670;51.464;11.964;2023-08-06T09:50:21;24.40;54.00
46932;DHT22;32670;51.464;11.964;2023-08-06T09:52:47;24.40;54.10
46932;DHT22;32670;51.464;11.964;2023-08-06T09:55:16;24.40;54.00
46932;DHT22;32670;51.464;11.964;2023-08-06T09:57:42;24.40;54.00
46932;DHT22;32670;51.464;11.964;2023-08-06T10:00:09;24.40;54.00
46932;DHT22;32670;51.464;11.964;2023-08-06T10:02:37;24.40;54.00
46932;DHT22;32670;51.464;11.964;2023-08-06T10:05:04;24.50;54.00
46932;DHT22;32670;51.464;11.964;2023-08-06T10:07:30;24.40;54.00
46932;DHT22;32670;51.464;11.964;2023-08-06T10:09:55;24.40;53.90
46932;DHT22;32670;51.464;11.964;2023-08-06T10:12:22;24.50;54.00
46932;DHT22;32670;51.464;11.964;2023-08-06T10:14:51;24.50;53.90
46932;DHT22;32670;51.464;11.964;2023-08-06T10:17:19;24.50;53.90
46932;DHT22;32670;51.464;11.964;2023-08-06T10:19:46;24.50;53.90
46932;DHT22;32670;51.464;11.964;2023-08-06T10:22:16;24.50;53.80
46932;DHT22;32670;51.464;11.964;2023-08-06T10:24:53;24.40;53.80
46932;DHT22;32670;51.464;11.964;2023-08-06T10:33:02;24.50;53.80
46932;DHT22;32670;51.464;11.964;2023-08-06T10:37:58;24.50;53.80
46932;DHT22;32670;51.464;11.964;2023-08-06T10:40:24;24.50;53.70
46932;DHT22;32670;51.464;11.964;2023-08-06T10:42:51;24.50;53.70
46932;DHT22;32670;51.464;11.964;2023-08-06T10:45:18;24.50;53.70
46932;DHT22;32670;51.464;11.964;2023-08-06T10:47:44;24.50;53.70
46932;DHT22;32670;51.464;11.964;2023-08-06T10:50:15;24.60;54.30
46932;DHT22;32670;51.464;11.964;2023-08-06T10:52:44;24.60;53.70
46932;DHT22;32670;51.464;11.964;2023-08-06T10:55:10;24.50;53.60
46932;DHT22;32670;51.464;11.964;2023-08-06T10:57:36;24.60;53.70
46932;DHT22;32670;51.464;11.964;2023-08-06T11:00:04;24.60;53.70
46932;DHT22;32670;51.464;11.964;2023-08-06T11:02:33;24.60;53.70
46932;DHT22;32670;51.464;11.964;2023-08-06T11:05:05;24.60;53.60
46932;DHT22;32670;51.464;11.964;2023-08-06T11:07:30;24.60;54.20
46932;DHT22;32670;51.464;11.964;2023-08-06T11:10:06;24.60;53.60
46932;DHT22;32670;51.464;11.964;2023-08-06T11:12:32;24.60;53.60
46932;DHT22;32670;51.464;11.964;2023-08-06T11:14:59;24.60;53.60
46932;DHT22;32670;51.464;11.964;2023-08-06T11:17:24;24.60;53.60
46932;DHT22;32670;51.464;11.964;2023-08-06T11:19:51;24.60;53.60
46932;DHT22;32670;51.464;11.964;2023-08-06T11:22:18;24.60;53.60
46932;DHT22;32670;51.464;11.964;2023-08-06T11:24:43;24.60;53.50
46932;DHT22;32670;51.464;11.964;2023-08-06T11:27:16;24.60;53.50
46932;DHT22;32670;51.464;11.964;2023-08-06T11:29:42;24.60;53.50
46932;DHT22;32670;51.464;11.964;2023-08-06T11:32:08;24.60;53.50
46932;DHT22;32670;51.464;11.964;2023-08-06T11:34:35;24.60;53.50
46932;DHT22;32670;51.464;11.964;2023-08-06T11:37:02;24.60;53.50
46932;DHT22;32670;51.464;11.964;2023-08-06T11:39:27;24.60;53.50
46932;DHT22;32670;51.464;11.964;2023-08-06T11:41:53;24.70;53.50
46932;DHT22;32670;51.464;11.964;2023-08-06T11:44:21;24.60;53.50
46932;DHT22;32670;51.464;11.964;2023-08-06T11:46:55;24.60;53.40
46932;DHT22;32670;51.464;11.964;2023-08-06T11:49:41;24.70;53.50
46932;DHT22;32670;51.464;11.964;2023-08-06T11:52:19;24.60;53.40
46932;DHT22;32670;51.464;11.964;2023-08-06T11:54:47;24.60;53.40
46932;DHT22;32670;51.464;11.964;2023-08-06T11:57:13;24.70;53.50
46932;DHT22;32670;51.464;11.964;2023-08-06T11:59:41;24.70;53.60
46932;DHT22;32670;51.464;11.964;2023-08-06T12:02:09;24.70;53.50
46932;DHT22;32670;51.464;11.964;2023-08-06T12:04:58;24.70;53.50
46932;DHT22;32670;51.464;11.964;2023-08-06T12:07:29;24.70;53.50
46932;DHT22;32670;51.464;11.964;2023-08-06T12:09:55;24.60;53.40
46932;DHT22;32670;51.464;11.964;2023-08-06T12:12:21;24.70;53.50
46932;DHT22;32670;51.464;11.964;2023-08-06T12:14:46;24.70;53.40
46932;DHT22;32670;51.464;11.964;2023-08-06T12:17:12;24.70;53.40
46932;DHT22;32670;51.464;11.964;2023-08-06T12:19:37;24.70;53.60
46932;DHT22;32670;51.464;11.964;2023-08-06T12:22:03;24.70;53.70
46932;DHT22;32670;51.464;11.964;2023-08-06T12:24:29;24.70;53.70
46932;DHT22;32670;51.464;11.964;2023-08-06T12:26:57;24.70;53.60
46932;DHT22;32670;51.464;11.964;2023-08-06T12:29:23;24.70;53.60
46932;DHT22;32670;51.464;11.964;2023-08-06T12:31:48;24.70;53.50
46932;DHT22;32670;51.464;11.964;2023-08-06T12:34:14;24.70;53.50
46932;DHT22;32670;51.464;11.964;2023-08-06T12:36:39;24.70;53.50
46932;DHT22;32670;51.464;11.964;2023-08-06T12:39:05;24.70;53.50
46932;DHT22;32670;51.464;11.964;2023-08-06T12:41:30;24.70;53.40
46932;DHT22;32670;51.464;11.964;2023-08-06T12:43:56;24.70;53.40
46932;DHT22;32670;51.464;11.964;2023-08-06T12:46:21;24.80;53.50
46932;DHT22;32670;51.464;11.964;2023-08-06T12:48:47;24.80;53.40
46932;DHT22;32670;51.464;11.964;2023-08-06T12:51:14;24.80;53.70
46932;DHT22;32670;51.464;11.964;2023-08-06T12:53:39;24.70;53.80
46932;DHT22;32670;51.464;11.964;2023-08-06T12:56:05;24.80;53.90
46932;DHT22;32670;51.464;11.964;2023-08-06T12:58:30;24.80;53.70
46932;DHT22;32670;51.464;11.964;2023-08-06T13:00:56;24.80;53.70
46932;DHT22;32670;51.464;11.964;2023-08-06T13:03:22;24.80;53.70
46932;DHT22;32670;51.464;11.964;2023-08-06T13:05:47;24.80;53.60
46932;DHT22;32670;51.464;11.964;2023-08-06T13:08:13;24.80;53.60
46932;DHT22;32670;51.464;11.964;2023-08-06T13:10:38;24.80;53.60
46932;DHT22;32670;51.464;11.964;2023-08-06T13:13:04;24.80;53.50
46932;DHT22;32670;51.464;11.964;2023-08-06T13:15:30;24.80;53.50
46932;DHT22;32670;51.464;11.964;2023-08-06T13:17:55;24.80;53.50
46932;DHT22;32670;51.464;11.964;2023-08-06T13:20:21;24.80;53.50
46932;DHT22;32670;51.464;11.964;2023-08-06T13:22:48;24.80;53.50
46932;DHT22;32670;51.464;11.964;2023-08-06T13:25:18;24.80;53.50
46932;DHT22;32670;51.464;11.964;2023-08-06T13:27:44;24.80;53.40
46932;DHT22;32670;51.464;11.964;2023-08-06T13:30:11;24.80;53.40
46932;DHT22;32670;51.464;11.964;2023-08-06T13:32:36;24.80;53.40
46932;DHT22;32670;51.464;11.964;2023-08-06T13:35:04;24.80;53.40
46932;DHT22;32670;51.464;11.964;2023-08-06T13:37:29;24.80;53.30
46932;DHT22;32670;51.464;11.964;2023-08-06T13:39:55;24.80;53.30
46932;DHT22;32670;51.464;11.964;2023-08-06T13:42:20;24.80;53.30
46932;DHT22;32670;51.464;11.964;2023-08-06T13:44:46;24.80;53.30
46932;DHT22;32670;51.464;11.964;2023-08-06T13:47:12;24.80;53.30
46932;DHT22;32670;51.464;11.964;2023-08-06T13:49:38;24.80;53.20
46932;DHT22;32670;51.464;11.964;2023-08-06T13:52:03;24.80;53.20
46932;DHT22;32670;51.464;11.964;2023-08-06T13:54:29;24.80;53.20
46932;DHT22;32670;51.464;11.964;2023-08-06T13:56:55;24.80;53.20
46932;DHT22;32670;51.464;11.964;2023-08-06T13:59:20;24.80;53.20
46932;DHT22;32670;51.464;11.964;2023-08-06T14:01:46;24.80;53.20
46932;DHT22;32670;51.464;11.964;2023-08-06T14:04:13;24.80;53.20
46932;DHT22;32670;51.464;11.964;2023-08-06T14:06:38;24.90;53.20
46932;DHT22;32670;51.464;11.964;2023-08-06T14:09:04;24.80;53.20
46932;DHT22;32670;51.464;11.964;2023-08-06T14:11:29;24.80;53.20
46932;DHT22;32670;51.464;11.964;2023-08-06T14:13:55;24.90;53.30
46932;DHT22;32670;51.464;11.964;2023-08-06T14:16:20;24.90;53.90
46932;DHT22;32670;51.464;11.964;2023-08-06T14:18:46;24.90;53.30
46932;DHT22;32670;51.464;11.964;2023-08-06T14:21:11;24.90;53.30
46932;DHT22;32670;51.464;11.964;2023-08-06T14:23:37;24.90;53.30
46932;DHT22;32670;51.464;11.964;2023-08-06T14:26:02;24.90;53.20
46932;DHT22;32670;51.464;11.964;2023-08-06T14:28:28;24.90;53.20
46932;DHT22;32670;51.464;11.964;2023-08-06T14:30:53;24.90;53.20
46932;DHT22;32670;51.464;11.964;2023-08-06T14:33:19;24.90;53.20
46932;DHT22;32670;51.464;11.964;2023-08-06T14:35:44;24.90;53.20
46932;DHT22;32670;51.464;11.964;2023-08-06T14:38:10;24.90;53.20
46932;DHT22;32670;51.464;11.964;2023-08-06T14:40:36;24.90;53.20
46932;DHT22;32670;51.464;11.964;2023-08-06T14:43:05;24.90;53.20
46932;DHT22;32670;51.464;11.964;2023-08-06T14:45:30;24.90;53.10
46932;DHT22;32670;51.464;11.964;2023-08-06T14:47:56;24.90;53.10
46932;DHT22;32670;51.464;11.964;2023-08-06T14:50:22;24.90;53.10
46932;DHT22;32670;51.464;11.964;2023-08-06T14:52:47;24.90;53.10
46932;DHT22;32670;51.464;11.964;2023-08-06T14:55:22;24.90;53.10
46932;DHT22;32670;51.464;11.964;2023-08-06T14:57:49;24.90;53.10
46932;DHT22;32670;51.464;11.964;2023-08-06T15:00:14;24.90;53.60
46932;DHT22;32670;51.464;11.964;2023-08-06T15:02:40;25.00;53.10
46932;DHT22;32670;51.464;11.964;2023-08-06T15:05:06;24.90;53.00
46932;DHT22;32670;51.464;11.964;2023-08-06T15:07:31;25.00;53.00
46932;DHT22;32670;51.464;11.964;2023-08-06T15:10:01;24.90;53.00
46932;DHT22;32670;51.464;11.964;2023-08-06T15:12:26;24.90;53.00
46932;DHT22;32670;51.464;11.964;2023-08-06T15:14:52;24.90;53.00
46932;DHT22;32670;51.464;11.964;2023-08-06T15:17:17;24.90;53.00
46932;DHT22;32670;51.464;11.964;2023-08-06T15:19:43;25.00;53.00